Pacific Princess — ZCDS3 — position and weather

sailwx.info

Track history (hours):
 
Tides and Currents Weather Stations Pressure Air Temp Water Temp Dewpoint Dewpoint Depression Visibility Wind Speed Wind Dir Waves Ship Positions

Pacific Princess (Bermuda)

Last reported at 2014-Aug-27 14:31 UTC. Time now 2014-Aug-30 08:31 UTC.
Position N 50°57' W 127°46'.

Length 180.5 m; beam 25.6 m; draft 6 m.

Type: Passenger vessel. MMSI: 310504000.

Date/timePositionNaut miles runAvg speedWind from/ knotsBaromVisibWave heightAir tempDewpointWater temp
2014-Aug-27 14:31N 50°57' W 127°46'1819.1
2014-Aug-27 13:33N 50°49' W 127°20'17412.4
2014-Aug-26 23:29N 49°19' W 123°28'1111.4
2014-Aug-26 22:33N 49°19' W 123°12'4 3.7
2014-Aug-26 21:31N 49°17' W 123°06'0 0.0
2014-Aug-26 20:31N 49°17' W 123°06'0 0.0
2014-Aug-26 19:31N 49°17' W 123°06'0 0.0
2014-Aug-26 18:31N 49°17' W 123°06'0 0.0
2014-Aug-26 17:31N 49°17' W 123°06'0 0.0
2014-Aug-26 16:31N 49°17' W 123°06'0 0.0
2014-Aug-26 15:31N 49°17' W 123°06'0 0.0
2014-Aug-26 14:31N 49°17' W 123°06'2 1.6
2014-Aug-26 13:34N 49°19' W 123°08'9 9.2
2014-Aug-26 12:34N 49°18' W 123°22'18 8.7
2014-Aug-26 10:27N 49°22' W 123°50'8 8.2
2014-Aug-26 09:30N 49°23' W 124°02'9 8.0
2014-Aug-26 08:23N 49°25' W 124°15'19 8.5
2014-Aug-26 06:09N 49°36' W 124°38'12512.5
2014-Aug-25 20:09N 50°48' W 127°20'1117.9
2014-Aug-25 19:33N 50°52' W 127°35'1414.1
2014-Aug-25 18:33N 51°01' W 127°52'51812.2
2014-Aug-24 00:04N 58°19' W 135°52'713.7
2014-Aug-23 23:33N 58°25' W 135°58'1514.9
2014-Aug-23 22:33N 58°39' W 136°08'  
2014-Aug-20 14:29N 51°00' W 127°49'1414.9
2014-Aug-20 13:33N 50°52' W 127°32'1917.8
2014-Aug-20 12:28N 50°44' W 127°04'16412.4
2014-Aug-19 23:14N 49°19' W 123°25'811.3
2014-Aug-19 22:33N 49°19' W 123°13'5 4.6
2014-Aug-19 21:33N 49°17' W 123°06'0 0.0
2014-Aug-19 20:33N 49°17' W 123°06'0 0.0
2014-Aug-19 19:33N 49°17' W 123°06'0 0.0
2014-Aug-19 18:33N 49°17' W 123°06'0 0.0
2014-Aug-19 17:33N 49°17' W 123°06'0 0.0
2014-Aug-19 16:33N 49°17' W 123°06'0 0.0
2014-Aug-19 15:33N 49°17' W 123°06'0 0.0
2014-Aug-19 14:33N 49°17' W 123°06'0 0.3
2014-Aug-19 13:33N 49°18' W 123°06'9 9.2
2014-Aug-19 12:33N 49°18' W 123°20'1312.6
2014-Aug-19 11:33N 49°18' W 123°40'17414.5
2014-Aug-18 23:33N 50°51' W 127°30'1413.7
2014-Aug-18 22:33N 50°59' W 127°48'1110.4
2014-Aug-18 21:33N 51°06' W 128°01'3 3.2
2014-Aug-18 20:33N 51°03' W 127°57'9 9.0
2014-Aug-18 19:32N 51°09' W 128°09'9 8.5
2014-Aug-18 18:31N 51°14' W 128°20'1611.5
2014-Aug-18 17:07N 51°29' W 128°31'  
Track history (hours):
 
Tides and Currents Weather Stations Pressure Air Temp Water Temp Dewpoint Dewpoint Depression Visibility Wind Speed Wind Dir Waves Ship Positions

Pacific Princess (Bermuda)

Last reported at 2014-Aug-27 14:31 UTC. Time now 2014-Aug-30 08:31 UTC.
Position N 50°57' W 127°46'.

Length 180.5 m; beam 25.6 m; draft 6 m.

Type: Passenger vessel. MMSI: 310504000.

Date/timePositionNaut miles runAvg speedWind from/ knotsBaromVisibWave heightAir tempDewpointWater temp
2014-Aug-27 14:31N 50°57' W 127°46'1819.1
2014-Aug-27 13:33N 50°49' W 127°20'17412.4
2014-Aug-26 23:29N 49°19' W 123°28'1111.4
2014-Aug-26 22:33N 49°19' W 123°12'4 3.7
2014-Aug-26 21:31N 49°17' W 123°06'0 0.0
2014-Aug-26 20:31N 49°17' W 123°06'0 0.0
2014-Aug-26 19:31N 49°17' W 123°06'0 0.0
2014-Aug-26 18:31N 49°17' W 123°06'0 0.0
2014-Aug-26 17:31N 49°17' W 123°06'0 0.0
2014-Aug-26 16:31N 49°17' W 123°06'0 0.0
2014-Aug-26 15:31N 49°17' W 123°06'0 0.0
2014-Aug-26 14:31N 49°17' W 123°06'2 1.6
2014-Aug-26 13:34N 49°19' W 123°08'9 9.2
2014-Aug-26 12:34N 49°18' W 123°22'18 8.7
2014-Aug-26 10:27N 49°22' W 123°50'8 8.2
2014-Aug-26 09:30N 49°23' W 124°02'9 8.0
2014-Aug-26 08:23N 49°25' W 124°15'19 8.5
2014-Aug-26 06:09N 49°36' W 124°38'12512.5
2014-Aug-25 20:09N 50°48' W 127°20'1117.9
2014-Aug-25 19:33N 50°52' W 127°35'1414.1
2014-Aug-25 18:33N 51°01' W 127°52'51812.2
2014-Aug-24 00:04N 58°19' W 135°52'713.7
2014-Aug-23 23:33N 58°25' W 135°58'1514.9
2014-Aug-23 22:33N 58°39' W 136°08'  
2014-Aug-20 14:29N 51°00' W 127°49'1414.9
2014-Aug-20 13:33N 50°52' W 127°32'1917.8
2014-Aug-20 12:28N 50°44' W 127°04'16412.4
2014-Aug-19 23:14N 49°19' W 123°25'811.3
2014-Aug-19 22:33N 49°19' W 123°13'5 4.6
2014-Aug-19 21:33N 49°17' W 123°06'0 0.0
2014-Aug-19 20:33N 49°17' W 123°06'0 0.0
2014-Aug-19 19:33N 49°17' W 123°06'0 0.0
2014-Aug-19 18:33N 49°17' W 123°06'0 0.0
2014-Aug-19 17:33N 49°17' W 123°06'0 0.0
2014-Aug-19 16:33N 49°17' W 123°06'0 0.0
2014-Aug-19 15:33N 49°17' W 123°06'0 0.0
2014-Aug-19 14:33N 49°17' W 123°06'0 0.3
2014-Aug-19 13:33N 49°18' W 123°06'9 9.2
2014-Aug-19 12:33N 49°18' W 123°20'1312.6
2014-Aug-19 11:33N 49°18' W 123°40'17414.5
2014-Aug-18 23:33N 50°51' W 127°30'1413.7
2014-Aug-18 22:33N 50°59' W 127°48'1110.4
2014-Aug-18 21:33N 51°06' W 128°01'3 3.2
2014-Aug-18 20:33N 51°03' W 127°57'9 9.0
2014-Aug-18 19:32N 51°09' W 128°09'9 8.5
2014-Aug-18 18:31N 51°14' W 128°20'1611.5
2014-Aug-18 17:07N 51°29' W 128°31'  

Dump ship's entire track history